sensor_id;sensor_type;location;lat;lon;timestamp;pressure;altitude;pressure_sealevel;temperature;humidity
51083;BME280;37131;42.694;23.350;2022-12-07T00:01:33;95512.88;;;4.22;100.00
51083;BME280;37131;42.694;23.350;2022-12-07T00:03:59;95508.84;;;4.05;100.00
51083;BME280;37131;42.694;23.350;2022-12-07T00:06:32;95504.66;;;4.19;100.00
51083;BME280;37131;42.694;23.350;2022-12-07T00:08:57;95504.13;;;4.09;100.00
51083;BME280;37131;42.694;23.350;2022-12-07T00:11:23;95505.66;;;4.18;100.00
51083;BME280;37131;42.694;23.350;2022-12-07T00:13:55;95500.75;;;4.23;100.00
51083;BME280;37131;42.694;23.350;2022-12-07T00:16:22;95501.66;;;4.30;100.00
51083;BME280;37131;42.694;23.350;2022-12-07T00:18:47;95495.75;;;4.36;100.00
51083;BME280;37131;42.694;23.350;2022-12-07T00:21:13;95490.16;;;4.48;100.00
51083;BME280;37131;42.694;23.350;2022-12-07T00:23:40;95496.66;;;4.44;100.00
51083;BME280;37131;42.694;23.350;2022-12-07T00:26:06;95506.09;;;4.36;100.00
51083;BME280;37131;42.694;23.350;2022-12-07T00:28:31;95496.41;;;4.38;100.00
51083;BME280;37131;42.694;23.350;2022-12-07T00:31:05;95498.09;;;4.31;100.00
51083;BME280;37131;42.694;23.350;2022-12-07T00:33:31;95503.94;;;4.25;100.00
51083;BME280;37131;42.694;23.350;2022-12-07T00:35:57;95505.53;;;4.56;100.00
51083;BME280;37131;42.694;23.350;2022-12-07T00:38:23;95509.38;;;4.45;100.00
51083;BME280;37131;42.694;23.350;2022-12-07T00:40:59;95494.34;;;4.49;100.00
51083;BME280;37131;42.694;23.350;2022-12-07T00:43:24;95502.25;;;4.62;100.00
51083;BME280;37131;42.694;23.350;2022-12-07T00:45:50;95502.88;;;4.49;100.00
51083;BME280;37131;42.694;23.350;2022-12-07T00:48:15;95497.72;;;4.64;100.00
51083;BME280;37131;42.694;23.350;2022-12-07T00:50:40;95494.34;;;4.49;100.00
51083;BME280;37131;42.694;23.350;2022-12-07T00:53:06;95496.47;;;4.30;100.00
51083;BME280;37131;42.694;23.350;2022-12-07T00:55:34;95493.47;;;4.42;100.00
51083;BME280;37131;42.694;23.350;2022-12-07T00:58:00;95493.13;;;4.30;100.00
51083;BME280;37131;42.694;23.350;2022-12-07T01:00:25;95496.75;;;4.20;100.00
51083;BME280;37131;42.694;23.350;2022-12-07T01:02:50;95482.75;;;4.15;100.00
51083;BME280;37131;42.694;23.350;2022-12-07T01:05:15;95482.44;;;4.18;100.00
51083;BME280;37131;42.694;23.350;2022-12-07T01:07:41;95483.84;;;4.20;100.00
51083;BME280;37131;42.694;23.350;2022-12-07T01:10:06;95490.91;;;4.27;100.00
51083;BME280;37131;42.694;23.350;2022-12-07T01:12:32;95494.09;;;4.29;100.00
51083;BME280;37131;42.694;23.350;2022-12-07T01:14:57;95495.59;;;4.38;100.00
51083;BME280;37131;42.694;23.350;2022-12-07T01:17:22;95489.53;;;4.31;100.00
51083;BME280;37131;42.694;23.350;2022-12-07T01:19:47;95490.16;;;4.33;100.00
51083;BME280;37131;42.694;23.350;2022-12-07T01:22:13;95481.72;;;4.39;100.00
51083;BME280;37131;42.694;23.350;2022-12-07T01:24:38;95478.59;;;4.29;100.00
51083;BME280;37131;42.694;23.350;2022-12-07T01:27:03;95478.41;;;4.30;100.00
51083;BME280;37131;42.694;23.350;2022-12-07T01:29:29;95480.47;;;4.20;100.00
51083;BME280;37131;42.694;23.350;2022-12-07T01:31:54;95473.69;;;4.19;100.00
51083;BME280;37131;42.694;23.350;2022-12-07T01:34:19;95474.59;;;4.11;100.00
51083;BME280;37131;42.694;23.350;2022-12-07T01:36:44;95468.28;;;4.14;100.00
51083;BME280;37131;42.694;23.350;2022-12-07T01:39:10;95473.16;;;4.09;100.00
51083;BME280;37131;42.694;23.350;2022-12-07T01:41:36;95471.47;;;4.01;100.00
51083;BME280;37131;42.694;23.350;2022-12-07T01:46:32;95476.19;;;3.97;100.00
51083;BME280;37131;42.694;23.350;2022-12-07T01:48:57;95477.88;;;4.05;100.00
51083;BME280;37131;42.694;23.350;2022-12-07T01:51:23;95473.34;;;4.07;100.00
51083;BME280;37131;42.694;23.350;2022-12-07T01:53:48;95466.41;;;4.08;100.00
51083;BME280;37131;42.694;23.350;2022-12-07T01:56:15;95419.88;;;3.86;100.00
51083;BME280;37131;42.694;23.350;2022-12-07T01:58:43;95456.78;;;4.31;100.00
51083;BME280;37131;42.694;23.350;2022-12-07T02:01:08;95453.16;;;4.26;100.00
51083;BME280;37131;42.694;23.350;2022-12-07T02:03:34;95452.97;;;4.27;100.00
51083;BME280;37131;42.694;23.350;2022-12-07T02:06:01;95452.75;;;4.44;100.00
51083;BME280;37131;42.694;23.350;2022-12-07T02:08:27;95449.13;;;4.38;100.00
51083;BME280;37131;42.694;23.350;2022-12-07T02:10:52;95447.50;;;4.52;100.00
51083;BME280;37131;42.694;23.350;2022-12-07T02:13:21;95454.91;;;4.55;100.00
51083;BME280;37131;42.694;23.350;2022-12-07T02:18:17;95455.25;;;4.37;100.00
51083;BME280;37131;42.694;23.350;2022-12-07T02:20:52;95456.13;;;4.59;100.00
51083;BME280;37131;42.694;23.350;2022-12-07T02:26:24;95455.44;;;4.50;100.00
51083;BME280;37131;42.694;23.350;2022-12-07T02:31:12;95443.75;;;4.54;100.00
51083;BME280;37131;42.694;23.350;2022-12-07T02:33:45;95440.19;;;4.55;100.00
51083;BME280;37131;42.694;23.350;2022-12-07T02:36:22;95432.81;;;4.52;100.00
51083;BME280;37131;42.694;23.350;2022-12-07T02:39:00;95435.31;;;4.61;100.00
51083;BME280;37131;42.694;23.350;2022-12-07T02:43:53;95440.59;;;4.37;100.00
51083;BME280;37131;42.694;23.350;2022-12-07T02:46:29;95443.34;;;4.36;100.00
51083;BME280;37131;42.694;23.350;2022-12-07T02:48:56;95446.91;;;4.35;100.00
51083;BME280;37131;42.694;23.350;2022-12-07T02:51:24;95437.53;;;4.34;100.00
51083;BME280;37131;42.694;23.350;2022-12-07T02:53:50;95431.44;;;4.20;100.00
51083;BME280;37131;42.694;23.350;2022-12-07T02:59:08;95435.81;;;4.19;100.00
51083;BME280;37131;42.694;23.350;2022-12-07T03:06:34;95430.28;;;4.08;100.00
51083;BME280;37131;42.694;23.350;2022-12-07T03:09:12;95424.13;;;4.09;100.00
51083;BME280;37131;42.694;23.350;2022-12-07T03:12:22;95421.38;;;4.10;100.00
51083;BME280;37131;42.694;23.350;2022-12-07T03:14:31;95416.13;;;4.03;100.00
51083;BME280;37131;42.694;23.350;2022-12-07T03:17:13;95418.00;;;4.10;100.00
51083;BME280;37131;42.694;23.350;2022-12-07T03:19:40;95415.84;;;3.98;100.00
51083;BME280;37131;42.694;23.350;2022-12-07T03:22:07;95414.34;;;3.89;100.00
51083;BME280;37131;42.694;23.350;2022-12-07T03:24:56;95415.59;;;3.93;100.00
51083;BME280;37131;42.694;23.350;2022-12-07T03:29:46;95424.25;;;4.00;100.00
51083;BME280;37131;42.694;23.350;2022-12-07T03:32:14;95420.22;;;3.83;100.00
51083;BME280;37131;42.694;23.350;2022-12-07T03:34:46;95428.56;;;3.85;100.00
51083;BME280;37131;42.694;23.350;2022-12-07T03:42:41;95419.09;;;3.85;100.00
51083;BME280;37131;42.694;23.350;2022-12-07T03:45:07;95422.28;;;3.88;100.00
51083;BME280;37131;42.694;23.350;2022-12-07T03:47:33;95423.16;;;3.80;100.00
51083;BME280;37131;42.694;23.350;2022-12-07T03:50:12;95417.09;;;3.73;100.00
51083;BME280;37131;42.694;23.350;2022-12-07T03:57:29;95424.38;;;3.69;100.00
51083;BME280;37131;42.694;23.350;2022-12-07T03:59:55;95417.47;;;3.69;100.00
51083;BME280;37131;42.694;23.350;2022-12-07T04:02:22;95408.28;;;3.67;100.00
51083;BME280;37131;42.694;23.350;2022-12-07T04:04:48;95418.91;;;3.72;100.00
51083;BME280;37131;42.694;23.350;2022-12-07T04:07:14;95415.84;;;3.68;100.00
51083;BME280;37131;42.694;23.350;2022-12-07T04:09:39;95415.84;;;3.68;100.00
51083;BME280;37131;42.694;23.350;2022-12-07T04:12:04;95411.94;;;3.73;100.00
51083;BME280;37131;42.694;23.350;2022-12-07T04:14:30;95413.56;;;3.74;100.00
51083;BME280;37131;42.694;23.350;2022-12-07T04:16:56;95404.03;;;3.74;100.00
51083;BME280;37131;42.694;23.350;2022-12-07T04:19:22;95405.19;;;3.72;100.00
51083;BME280;37131;42.694;23.350;2022-12-07T04:21:48;95410.25;;;3.65;100.00
51083;BME280;37131;42.694;23.350;2022-12-07T04:24:13;95407.75;;;3.57;100.00
51083;BME280;37131;42.694;23.350;2022-12-07T04:26:39;95416.03;;;3.67;100.00
51083;BME280;37131;42.694;23.350;2022-12-07T04:29:05;95407.75;;;3.72;100.00
51083;BME280;37131;42.694;23.350;2022-12-07T04:31:30;95418.72;;;3.74;100.00
51083;BME280;37131;42.694;23.350;2022-12-07T04:33:56;95421.91;;;3.76;100.00
51083;BME280;37131;42.694;23.350;2022-12-07T04:36:21;95420.47;;;3.58;100.00
51083;BME280;37131;42.694;23.350;2022-12-07T04:38:46;95413.81;;;3.64;100.00
51083;BME280;37131;42.694;23.350;2022-12-07T04:41:12;95412.91;;;3.57;100.00
51083;BME280;37131;42.694;23.350;2022-12-07T04:43:37;95419.56;;;3.51;100.00
51083;BME280;37131;42.694;23.350;2022-12-07T04:46:02;95426.69;;;3.49;100.00
51083;BME280;37131;42.694;23.350;2022-12-07T04:48:28;95421.06;;;3.45;100.00
51083;BME280;37131;42.694;23.350;2022-12-07T04:50:54;95428.69;;;3.39;100.00
51083;BME280;37131;42.694;23.350;2022-12-07T04:53:19;95429.50;;;3.39;100.00
51083;BME280;37131;42.694;23.350;2022-12-07T04:55:45;95423.06;;;3.35;100.00
51083;BME280;37131;42.694;23.350;2022-12-07T04:58:10;95423.38;;;3.40;100.00
51083;BME280;37131;42.694;23.350;2022-12-07T05:00:36;95425.16;;;3.40;100.00
51083;BME280;37131;42.694;23.350;2022-12-07T05:03:01;95433.28;;;3.28;100.00
51083;BME280;37131;42.694;23.350;2022-12-07T05:05:26;95428.19;;;3.20;100.00
51083;BME280;37131;42.694;23.350;2022-12-07T05:07:51;95431.94;;;3.18;100.00
51083;BME280;37131;42.694;23.350;2022-12-07T05:10:17;95428.22;;;3.35;100.00
51083;BME280;37131;42.694;23.350;2022-12-07T05:12:42;95441.72;;;3.22;100.00
51083;BME280;37131;42.694;23.350;2022-12-07T05:15:07;95435.47;;;3.16;100.00
51083;BME280;37131;42.694;23.350;2022-12-07T05:17:33;95425.41;;;3.07;100.00
51083;BME280;37131;42.694;23.350;2022-12-07T05:19:58;95425.75;;;3.04;100.00
51083;BME280;37131;42.694;23.350;2022-12-07T05:22:23;95427.88;;;3.00;100.00
51083;BME280;37131;42.694;23.350;2022-12-07T05:24:53;95430.78;;;2.97;100.00
51083;BME280;37131;42.694;23.350;2022-12-07T05:27:18;95425.47;;;2.98;100.00
51083;BME280;37131;42.694;23.350;2022-12-07T05:29:43;95437.69;;;2.96;100.00
51083;BME280;37131;42.694;23.350;2022-12-07T05:32:08;95423.88;;;2.97;100.00
51083;BME280;37131;42.694;23.350;2022-12-07T05:34:34;95427.41;;;2.96;100.00
51083;BME280;37131;42.694;23.350;2022-12-07T05:36:59;95432.84;;;3.02;100.00
51083;BME280;37131;42.694;23.350;2022-12-07T05:39:24;95432.38;;;2.98;100.00
51083;BME280;37131;42.694;23.350;2022-12-07T05:41:49;95430.44;;;3.00;100.00
51083;BME280;37131;42.694;23.350;2022-12-07T05:44:33;95437.53;;;2.98;100.00
51083;BME280;37131;42.694;23.350;2022-12-07T05:46:59;95424.66;;;2.98;100.00
51083;BME280;37131;42.694;23.350;2022-12-07T05:49:24;95422.66;;;2.85;100.00
51083;BME280;37131;42.694;23.350;2022-12-07T05:51:49;95424.06;;;2.88;100.00
51083;BME280;37131;42.694;23.350;2022-12-07T05:54:14;95426.44;;;2.97;100.00
51083;BME280;37131;42.694;23.350;2022-12-07T05:56:40;95418.53;;;2.99;100.00
51083;BME280;37131;42.694;23.350;2022-12-07T05:59:05;95413.50;;;3.06;100.00
51083;BME280;37131;42.694;23.350;2022-12-07T06:01:59;95417.28;;;3.18;100.00
51083;BME280;37131;42.694;23.350;2022-12-07T06:04:26;95423.56;;;3.15;100.00
51083;BME280;37131;42.694;23.350;2022-12-07T06:06:51;95419.22;;;3.16;100.00
51083;BME280;37131;42.694;23.350;2022-12-07T06:09:17;95419.06;;;3.18;100.00
51083;BME280;37131;42.694;23.350;2022-12-07T06:11:43;95417.78;;;3.13;100.00
51083;BME280;37131;42.694;23.350;2022-12-07T06:14:27;95426.41;;;3.06;100.00
51083;BME280;37131;42.694;23.350;2022-12-07T06:16:52;95428.09;;;3.13;100.00
51083;BME280;37131;42.694;23.350;2022-12-07T06:19:18;95426.50;;;3.12;100.00
51083;BME280;37131;42.694;23.350;2022-12-07T06:21:43;95427.44;;;3.11;100.00
51083;BME280;37131;42.694;23.350;2022-12-07T06:24:12;95426.41;;;3.06;100.00
51083;BME280;37131;42.694;23.350;2022-12-07T06:26:37;95424.69;;;3.13;100.00
51083;BME280;37131;42.694;23.350;2022-12-07T06:29:03;95423.56;;;3.15;100.00
51083;BME280;37131;42.694;23.350;2022-12-07T06:31:28;95423.50;;;3.24;100.00
51083;BME280;37131;42.694;23.350;2022-12-07T06:33:57;95426.31;;;3.14;100.00
51083;BME280;37131;42.694;23.350;2022-12-07T06:36:22;95428.28;;;3.12;100.00
51083;BME280;37131;42.694;23.350;2022-12-07T06:38:48;95433.34;;;3.20;100.00
51083;BME280;37131;42.694;23.350;2022-12-07T06:41:13;95434.88;;;3.14;100.00
51083;BME280;37131;42.694;23.350;2022-12-07T06:43:38;95440.47;;;3.18;100.00
51083;BME280;37131;42.694;23.350;2022-12-07T06:46:03;95437.34;;;3.23;100.00
51083;BME280;37131;42.694;23.350;2022-12-07T06:48:29;95438.63;;;3.27;100.00
51083;BME280;37131;42.694;23.350;2022-12-07T06:50:54;95437.47;;;3.29;100.00
51083;BME280;37131;42.694;23.350;2022-12-07T06:53:19;95446.75;;;3.39;100.00
51083;BME280;37131;42.694;23.350;2022-12-07T06:55:45;95441.75;;;3.37;100.00
51083;BME280;37131;42.694;23.350;2022-12-07T06:58:10;95441.41;;;3.40;100.00
51083;BME280;37131;42.694;23.350;2022-12-07T07:00:35;95443.53;;;3.37;100.00
51083;BME280;37131;42.694;23.350;2022-12-07T07:03:00;95445.31;;;3.36;100.00
51083;BME280;37131;42.694;23.350;2022-12-07T07:05:26;95442.84;;;3.43;100.00
51083;BME280;37131;42.694;23.350;2022-12-07T07:07:51;95439.09;;;3.45;100.00
51083;BME280;37131;42.694;23.350;2022-12-07T07:10:16;95436.63;;;3.52;100.00
51083;BME280;37131;42.694;23.350;2022-12-07T07:12:42;95431.47;;;3.52;100.00
51083;BME280;37131;42.694;23.350;2022-12-07T07:15:07;95437.81;;;3.64;100.00
51083;BME280;37131;42.694;23.350;2022-12-07T07:17:32;95440.41;;;3.79;100.00
51083;BME280;37131;42.694;23.350;2022-12-07T07:19:57;95447.72;;;3.91;100.00
51083;BME280;37131;42.694;23.350;2022-12-07T07:22:23;95439.63;;;3.94;100.00
51083;BME280;37131;42.694;23.350;2022-12-07T07:24:48;95439.88;;;3.84;100.00
51083;BME280;37131;42.694;23.350;2022-12-07T07:27:13;95437.75;;;3.73;100.00
51083;BME280;37131;42.694;23.350;2022-12-07T07:29:38;95435.41;;;3.78;100.00
51083;BME280;37131;42.694;23.350;2022-12-07T07:32:04;95441.75;;;3.75;100.00
51083;BME280;37131;42.694;23.350;2022-12-07T07:34:29;95448.41;;;3.69;100.00
51083;BME280;37131;42.694;23.350;2022-12-07T07:36:54;95448.59;;;3.68;100.00
51083;BME280;37131;42.694;23.350;2022-12-07T07:39:20;95449.13;;;3.78;100.00
51083;BME280;37131;42.694;23.350;2022-12-07T07:41:45;95448.69;;;3.90;100.00
51083;BME280;37131;42.694;23.350;2022-12-07T07:44:11;95450.66;;;3.88;100.00
51083;BME280;37131;42.694;23.350;2022-12-07T07:46:36;95455.09;;;4.09;100.00
51083;BME280;37131;42.694;23.350;2022-12-07T07:49:01;95448.97;;;4.25;100.00
51083;BME280;37131;42.694;23.350;2022-12-07T07:51:27;95443.97;;;4.23;100.00
51083;BME280;37131;42.694;23.350;2022-12-07T07:53:52;95447.88;;;4.04;100.00
51083;BME280;37131;42.694;23.350;2022-12-07T07:56:17;95441.38;;;4.23;100.00
51083;BME280;37131;42.694;23.350;2022-12-07T07:58:42;95447.09;;;4.33;100.00
51083;BME280;37131;42.694;23.350;2022-12-07T08:01:08;95439.31;;;4.48;100.00
51083;BME280;37131;42.694;23.350;2022-12-07T08:03:33;95441.56;;;4.36;100.00
51083;BME280;37131;42.694;23.350;2022-12-07T08:05:59;95444.16;;;4.07;100.00
51083;BME280;37131;42.694;23.350;2022-12-07T08:08:24;95443.91;;;4.16;100.00
51083;BME280;37131;42.694;23.350;2022-12-07T08:10:49;95443.72;;;4.18;100.00
51083;BME280;37131;42.694;23.350;2022-12-07T08:13:15;95445.44;;;4.47;100.00
51083;BME280;37131;42.694;23.350;2022-12-07T08:15:42;95447.66;;;4.65;100.00
51083;BME280;37131;42.694;23.350;2022-12-07T08:18:07;95442.53;;;4.50;100.00
51083;BME280;37131;42.694;23.350;2022-12-07T08:20:33;95439.13;;;4.50;100.00
51083;BME280;37131;42.694;23.350;2022-12-07T08:22:59;95442.47;;;4.29;100.00
51083;BME280;37131;42.694;23.350;2022-12-07T08:25:24;95437.47;;;4.42;100.00
51083;BME280;37131;42.694;23.350;2022-12-07T08:27:50;95437.97;;;4.52;100.00
51083;BME280;37131;42.694;23.350;2022-12-07T08:30:16;95441.84;;;4.42;100.00
51083;BME280;37131;42.694;23.350;2022-12-07T08:32:41;95443.19;;;4.59;100.00
51083;BME280;37131;42.694;23.350;2022-12-07T08:35:07;95442.28;;;4.30;100.00
51083;BME280;37131;42.694;23.350;2022-12-07T08:37:32;95444.59;;;4.25;100.00
51083;BME280;37131;42.694;23.350;2022-12-07T08:39:58;95449.63;;;4.48;100.00
51083;BME280;37131;42.694;23.350;2022-12-07T08:42:23;95439.75;;;4.52;100.00
51083;BME280;37131;42.694;23.350;2022-12-07T08:44:52;95438.41;;;4.56;100.00
51083;BME280;37131;42.694;23.350;2022-12-07T08:47:18;95430.78;;;4.48;100.00
51083;BME280;37131;42.694;23.350;2022-12-07T08:49:44;95433.19;;;4.34;100.00
51083;BME280;37131;42.694;23.350;2022-12-07T08:52:11;95430.72;;;4.26;100.00
51083;BME280;37131;42.694;23.350;2022-12-07T08:54:37;95425.28;;;4.21;100.00
51083;BME280;37131;42.694;23.350;2022-12-07T08:57:03;95424.22;;;4.30;100.00
51083;BME280;37131;42.694;23.350;2022-12-07T08:59:29;95421.34;;;4.40;100.00
51083;BME280;37131;42.694;23.350;2022-12-07T09:01:55;95426.59;;;4.47;100.00
51083;BME280;37131;42.694;23.350;2022-12-07T09:04:20;95412.34;;;4.51;100.00
51083;BME280;37131;42.694;23.350;2022-12-07T09:06:46;95417.38;;;4.59;100.00
51083;BME280;37131;42.694;23.350;2022-12-07T09:09:12;95413.16;;;4.73;100.00
51083;BME280;37131;42.694;23.350;2022-12-07T09:11:38;95407.34;;;4.86;100.00
51083;BME280;37131;42.694;23.350;2022-12-07T09:14:04;95402.59;;;4.89;100.00
51083;BME280;37131;42.694;23.350;2022-12-07T09:16:29;95396.69;;;4.74;100.00
51083;BME280;37131;42.694;23.350;2022-12-07T09:18:55;95399.28;;;4.96;100.00
51083;BME280;37131;42.694;23.350;2022-12-07T09:21:20;95388.00;;;5.25;100.00
51083;BME280;37131;42.694;23.350;2022-12-07T09:23:45;95383.50;;;5.34;100.00
51083;BME280;37131;42.694;23.350;2022-12-07T09:26:11;95400.53;;;5.50;100.00
51083;BME280;37131;42.694;23.350;2022-12-07T09:28:36;95401.19;;;5.58;100.00
51083;BME280;37131;42.694;23.350;2022-12-07T09:31:02;95392.00;;;5.56;100.00
51083;BME280;37131;42.694;23.350;2022-12-07T09:33:27;95385.28;;;5.61;100.00
51083;BME280;37131;42.694;23.350;2022-12-07T09:35:52;95384.66;;;5.59;100.00
51083;BME280;37131;42.694;23.350;2022-12-07T09:38:18;95370.59;;;5.69;100.00
51083;BME280;37131;42.694;23.350;2022-12-07T09:40:44;95372.56;;;5.67;100.00
51083;BME280;37131;42.694;23.350;2022-12-07T09:43:13;95370.72;;;5.54;100.00
51083;BME280;37131;42.694;23.350;2022-12-07T09:45:39;95363.44;;;5.71;100.00
51083;BME280;37131;42.694;23.350;2022-12-07T09:48:05;95361.56;;;5.93;100.00
51083;BME280;37131;42.694;23.350;2022-12-07T09:50:31;95353.00;;;5.57;100.00
51083;BME280;37131;42.694;23.350;2022-12-07T09:53:06;95354.69;;;5.72;100.00
51083;BME280;37131;42.694;23.350;2022-12-07T09:55:33;95361.75;;;5.91;100.00
51083;BME280;37131;42.694;23.350;2022-12-07T09:57:58;95351.72;;;6.10;100.00
51083;BME280;37131;42.694;23.350;2022-12-07T10:00:24;95356.56;;;6.26;99.90
51083;BME280;37131;42.694;23.350;2022-12-07T10:05:16;95343.78;;;6.11;98.52
51083;BME280;37131;42.694;23.350;2022-12-07T10:07:43;95345.81;;;6.36;98.27
51083;BME280;37131;42.694;23.350;2022-12-07T10:10:12;95337.03;;;6.24;97.29
51083;BME280;37131;42.694;23.350;2022-12-07T10:12:52;95346.09;;;6.55;96.00
51083;BME280;37131;42.694;23.350;2022-12-07T10:15:18;95332.28;;;6.34;96.25
51083;BME280;37131;42.694;23.350;2022-12-07T10:17:47;95333.91;;;6.42;96.62
51083;BME280;37131;42.694;23.350;2022-12-07T10:25:30;95322.59;;;6.63;93.21
51083;BME280;37131;42.694;23.350;2022-12-07T10:28:02;95310.84;;;7.00;92.20
51083;BME280;37131;42.694;23.350;2022-12-07T10:30:27;95316.44;;;6.84;91.34
51083;BME280;37131;42.694;23.350;2022-12-07T10:32:53;95307.88;;;6.97;90.88
51083;BME280;37131;42.694;23.350;2022-12-07T10:37:46;95294.47;;;7.20;90.88
51083;BME280;37131;42.694;23.350;2022-12-07T10:40:28;95288.06;;;7.49;89.11
51083;BME280;37131;42.694;23.350;2022-12-07T10:43:00;95282.25;;;7.54;87.25
51083;BME280;37131;42.694;23.350;2022-12-07T10:45:26;95295.06;;;7.35;88.19
51083;BME280;37131;42.694;23.350;2022-12-07T10:47:52;95283.69;;;7.43;87.08
51083;BME280;37131;42.694;23.350;2022-12-07T10:55:40;95287.72;;;7.19;90.67
51083;BME280;37131;42.694;23.350;2022-12-07T11:00:56;95272.44;;;7.63;87.47
51083;BME280;37131;42.694;23.350;2022-12-07T11:03:36;95266.06;;;7.59;86.48
51083;BME280;37131;42.694;23.350;2022-12-07T11:06:24;95259.47;;;7.63;86.02
51083;BME280;37131;42.694;23.350;2022-12-07T11:09:00;95257.44;;;7.71;85.26
51083;BME280;37131;42.694;23.350;2022-12-07T11:14:11;95259.75;;;7.34;88.69
51083;BME280;37131;42.694;23.350;2022-12-07T11:37:31;95223.03;;;7.89;86.71
51083;BME280;37131;42.694;23.350;2022-12-07T11:40:02;95212.97;;;7.68;87.83
51083;BME280;37131;42.694;23.350;2022-12-07T11:42:30;95220.53;;;7.69;87.05
51083;BME280;37131;42.694;23.350;2022-12-07T11:52:47;95220.28;;;8.16;85.06
51083;BME280;37131;42.694;23.350;2022-12-07T11:55:19;95215.59;;;8.32;84.04
51083;BME280;37131;42.694;23.350;2022-12-07T11:57:46;95207.75;;;8.38;83.62
51083;BME280;37131;42.694;23.350;2022-12-07T12:00:16;95200.50;;;8.54;81.73
51083;BME280;37131;42.694;23.350;2022-12-07T12:05:18;95188.19;;;8.11;83.88
51083;BME280;37131;42.694;23.350;2022-12-07T12:07:44;95192.47;;;8.23;83.87
51083;BME280;37131;42.694;23.350;2022-12-07T12:10:36;95186.59;;;8.35;82.55
51083;BME280;37131;42.694;23.350;2022-12-07T12:25:55;95174.03;;;8.64;80.43
51083;BME280;37131;42.694;23.350;2022-12-07T12:32:04;95168.31;;;8.73;80.75
51083;BME280;37131;42.694;23.350;2022-12-07T12:33:52;95162.16;;;8.49;80.77
51083;BME280;37131;42.694;23.350;2022-12-07T12:43:58;95142.59;;;8.90;80.68
51083;BME280;37131;42.694;23.350;2022-12-07T12:54:41;95146.53;;;9.30;77.46
51083;BME280;37131;42.694;23.350;2022-12-07T12:57:24;95141.88;;;9.20;79.17
51083;BME280;37131;42.694;23.350;2022-12-07T13:10:33;95150.88;;;9.18;80.21
51083;BME280;37131;42.694;23.350;2022-12-07T13:15:31;95151.97;;;9.10;79.94
51083;BME280;37131;42.694;23.350;2022-12-07T13:17:58;95142.31;;;9.17;80.56
51083;BME280;37131;42.694;23.350;2022-12-07T13:20:43;95142.88;;;9.19;80.07
51083;BME280;37131;42.694;23.350;2022-12-07T13:23:08;95145.03;;;9.22;79.19
51083;BME280;37131;42.694;23.350;2022-12-07T13:25:38;95141.56;;;9.10;79.54
51083;BME280;37131;42.694;23.350;2022-12-07T13:28:09;95151.59;;;9.06;79.62
51083;BME280;37131;42.694;23.350;2022-12-07T13:30:43;95144.31;;;8.97;80.81
51083;BME280;37131;42.694;23.350;2022-12-07T13:33:10;95135.31;;;8.99;80.82
51083;BME280;37131;42.694;23.350;2022-12-07T13:35:36;95141.19;;;9.06;80.11
51083;BME280;37131;42.694;23.350;2022-12-07T13:38:04;95132.19;;;9.09;80.36
51083;BME280;37131;42.694;23.350;2022-12-07T13:40:30;95135.41;;;8.67;82.71
51083;BME280;37131;42.694;23.350;2022-12-07T13:43:04;95129.50;;;8.78;82.43
51083;BME280;37131;42.694;23.350;2022-12-07T13:45:31;95130.81;;;8.88;81.31
51083;BME280;37131;42.694;23.350;2022-12-07T13:50:52;95129.66;;;9.02;80.98
51083;BME280;37131;42.694;23.350;2022-12-07T13:53:17;95132.81;;;9.04;81.76
51083;BME280;37131;42.694;23.350;2022-12-07T13:55:46;95120.69;;;9.17;80.56
51083;BME280;37131;42.694;23.350;2022-12-07T13:58:12;95120.69;;;9.17;81.19
51083;BME280;37131;42.694;23.350;2022-12-07T14:00:37;95120.34;;;9.13;80.91
51083;BME280;37131;42.694;23.350;2022-12-07T14:05:39;95129.38;;;8.92;82.25
51083;BME280;37131;42.694;23.350;2022-12-07T14:08:20;95124.22;;;8.85;83.19
51083;BME280;37131;42.694;23.350;2022-12-07T14:16:05;95122.56;;;8.91;81.93
51083;BME280;37131;42.694;23.350;2022-12-07T14:18:41;95139.97;;;8.90;81.83
51083;BME280;37131;42.694;23.350;2022-12-07T14:23:34;95134.63;;;8.67;83.36
51083;BME280;37131;42.694;23.350;2022-12-07T14:28:35;95134.41;;;8.68;83.30
51083;BME280;37131;42.694;23.350;2022-12-07T14:31:01;95141.97;;;8.70;82.75
51083;BME280;37131;42.694;23.350;2022-12-07T14:33:27;95133.03;;;8.66;83.19
51083;BME280;37131;42.694;23.350;2022-12-07T14:35:53;95138.22;;;8.66;83.17
51083;BME280;37131;42.694;23.350;2022-12-07T14:38:23;95138.00;;;8.67;82.84
51083;BME280;37131;42.694;23.350;2022-12-07T14:40:49;95137.47;;;8.58;83.37
51083;BME280;37131;42.694;23.350;2022-12-07T14:43:15;95137.38;;;8.47;83.86
51083;BME280;37131;42.694;23.350;2022-12-07T14:45:41;95138.59;;;8.44;83.88
51083;BME280;37131;42.694;23.350;2022-12-07T14:48:07;95134.78;;;8.40;84.21
51083;BME280;37131;42.694;23.350;2022-12-07T14:50:37;95134.06;;;8.33;84.96
51083;BME280;37131;42.694;23.350;2022-12-07T14:53:04;95139.88;;;8.28;85.23
51083;BME280;37131;42.694;23.350;2022-12-07T14:55:34;95142.91;;;8.25;85.95
51083;BME280;37131;42.694;23.350;2022-12-07T14:57:59;95135.53;;;8.22;86.31
51083;BME280;37131;42.694;23.350;2022-12-07T15:00:26;95142.78;;;8.13;86.43
51083;BME280;37131;42.694;23.350;2022-12-07T15:02:52;95145.03;;;8.10;86.60
51083;BME280;37131;42.694;23.350;2022-12-07T15:05:17;95140.91;;;8.02;86.97
51083;BME280;37131;42.694;23.350;2022-12-07T15:07:43;95154.91;;;7.94;87.28
51083;BME280;37131;42.694;23.350;2022-12-07T15:10:13;95160.16;;;7.87;87.84
51083;BME280;37131;42.694;23.350;2022-12-07T15:12:39;95162.19;;;7.79;88.63
51083;BME280;37131;42.694;23.350;2022-12-07T15:15:05;95163.59;;;7.75;88.49
51083;BME280;37131;42.694;23.350;2022-12-07T15:17:30;95162.81;;;7.74;89.71
51083;BME280;37131;42.694;23.350;2022-12-07T15:19:55;95172.63;;;7.65;90.03